Time;durP1;ratioP1;P1;durP2;ratioP2;P2;SDS_P1;SDS_P2;PMS_P1;PMS_P2;Temp;Humidity;BMP_temperature;BMP_pressure;BME280_temperature;BME280_humidity;BME280_pressure;Samples;Min_cycle;Max_cycle;Signal;HPM_P1;HPM_P2
2023/06/30 00:00:34;;;;;;;9.48;3.97;;;;;;;;;;5030749;28;20021;-75
2023/06/30 00:03:00;;;;;;;11.15;4.03;;;;;;;;;;5033653;28;20037;-75
2023/06/30 00:05:27;;;;;;;9.85;4.03;;;;;;;;;;5026248;28;20021;-75
2023/06/30 00:07:58;;;;;;;9.85;3.95;;;;;;;;;;5031639;28;20021;-74
2023/06/30 00:10:25;;;;;;;13.13;4.55;;;;;;;;;;5030588;28;20076;-74
2023/06/30 00:12:51;;;;;;;10.88;3.40;;;;;;;;;;5035365;28;20031;-75
2023/06/30 00:15:17;;;;;;;9.23;4.05;;;;;;;;;;5034707;28;20063;-74
2023/06/30 00:17:43;;;;;;;8.70;5.10;;;;;;;;;;5045755;28;20475;-74
2023/06/30 00:20:11;;;;;;;8.60;4.20;;;;;;;;;;5037029;28;20013;-74
2023/06/30 00:22:37;;;;;;;11.65;3.83;;;;;;;;;;5035746;28;20025;-74
2023/06/30 00:25:04;;;;;;;13.75;4.10;;;;;;;;;;5027953;28;20026;-74
2023/06/30 00:27:30;;;;;;;12.80;4.85;;;;;;;;;;5031202;28;20148;-75
2023/06/30 00:29:57;;;;;;;17.30;5.35;;;;;;;;;;5031273;28;20057;-75
2023/06/30 00:32:24;;;;;;;9.35;4.95;;;;;;;;;;5030194;28;20391;-74
2023/06/30 00:34:50;;;;;;;7.72;4.05;;;;;;;;;;5029243;28;20026;-74
2023/06/30 00:37:16;;;;;;;10.25;4.25;;;;;;;;;;5030603;28;20022;-75
2023/06/30 00:39:42;;;;;;;11.88;3.50;;;;;;;;;;5026880;28;20029;-75
2023/06/30 00:42:09;;;;;;;11.68;4.35;;;;;;;;;;5029939;28;20562;-74
2023/06/30 00:44:35;;;;;;;10.35;3.92;;;;;;;;;;5030571;28;20033;-74
2023/06/30 00:47:01;;;;;;;15.23;4.45;;;;;;;;;;5026683;28;20104;-74
2023/06/30 00:49:28;;;;;;;12.27;4.40;;;;;;;;;;5029724;28;20029;-74
2023/06/30 00:51:55;;;;;;;11.77;3.60;;;;;;;;;;5024806;28;20108;-75
2023/06/30 00:54:21;;;;;;;9.90;3.60;;;;;;;;;;5031528;28;20036;-74
2023/06/30 00:56:47;;;;;;;8.07;3.33;;;;;;;;;;5039621;28;20033;-75
2023/06/30 00:59:13;;;;;;;11.90;4.25;;;;;;;;;;5027583;28;20029;-75
2023/06/30 01:01:43;;;;;;;14.63;5.80;;;;;;;;;;5020391;28;20032;-75
2023/06/30 01:04:17;;;;;;;9.73;3.45;;;;;;;;;;5031519;28;20116;-74
2023/06/30 01:06:52;;;;;;;14.18;4.28;;;;;;;;;;5024103;28;20041;-75
2023/06/30 01:09:18;;;;;;;;;;;;;;;;;;5017271;28;20022;-75
2023/06/30 01:11:44;;;;;;;10.63;4.78;;;;;;;;;;5024558;28;19920;-75
2023/06/30 01:14:11;;;;;;;15.52;4.55;;;;;;;;;;5041425;28;20041;-75
2023/06/30 01:16:38;;;;;;;16.40;4.45;;;;;;;;;;5047610;28;20033;-75
2023/06/30 01:19:08;;;;;;;15.85;4.88;;;;;;;;;;5034840;28;20099;-75
2023/06/30 01:21:34;;;;;;;9.82;3.47;;;;;;;;;;5037535;28;20032;-74
2023/06/30 01:24:03;;;;;;;17.42;4.40;;;;;;;;;;5031456;28;20372;-75
2023/06/30 01:26:34;;;;;;;12.07;5.18;;;;;;;;;;5028530;28;20546;-75
2023/06/30 01:29:01;;;;;;;13.88;3.75;;;;;;;;;;5033944;28;20069;-75
2023/06/30 01:31:30;;;;;;;9.77;3.90;;;;;;;;;;5031995;28;20017;-74
2023/06/30 01:33:57;;;;;;;10.77;3.92;;;;;;;;;;5036260;28;20037;-74
2023/06/30 01:36:23;;;;;;;16.95;4.30;;;;;;;;;;5026129;28;20029;-75
2023/06/30 01:38:49;;;;;;;12.80;4.05;;;;;;;;;;5027343;28;20907;-75
2023/06/30 01:41:15;;;;;;;12.40;4.03;;;;;;;;;;5027605;28;20029;-75
2023/06/30 01:43:42;;;;;;;7.78;4.25;;;;;;;;;;5028915;28;20124;-74
2023/06/30 01:46:08;;;;;;;12.57;4.53;;;;;;;;;;5031675;28;20032;-75
2023/06/30 01:48:34;;;;;;;8.55;4.07;;;;;;;;;;5028198;28;21012;-74
2023/06/30 01:51:00;;;;;;;8.45;4.22;;;;;;;;;;5027469;28;20167;-74
2023/06/30 01:53:26;;;;;;;10.27;4.80;;;;;;;;;;5027086;28;20515;-75
2023/06/30 01:55:56;;;;;;;14.05;4.57;;;;;;;;;;5022617;28;20049;-74
2023/06/30 01:58:22;;;;;;;11.95;3.80;;;;;;;;;;5022321;28;20025;-75
2023/06/30 02:00:49;;;;;;;12.63;4.10;;;;;;;;;;5039020;28;20037;-74
2023/06/30 02:03:15;;;;;;;11.25;4.40;;;;;;;;;;5026611;28;20495;-74
2023/06/30 02:05:41;;;;;;;9.48;4.10;;;;;;;;;;5030831;28;20093;-73
2023/06/30 02:08:07;;;;;;;13.10;4.03;;;;;;;;;;5026329;28;20025;-75
2023/06/30 02:10:33;;;;;;;9.85;4.05;;;;;;;;;;5024188;28;20365;-74
2023/06/30 02:12:59;;;;;;;17.45;4.32;;;;;;;;;;5027040;28;20033;-74
2023/06/30 02:15:25;;;;;;;9.13;4.20;;;;;;;;;;5025612;28;20034;-74
2023/06/30 02:17:52;;;;;;;8.02;3.95;;;;;;;;;;5029928;28;20057;-74
2023/06/30 02:20:18;;;;;;;9.32;4.03;;;;;;;;;;5025550;28;20109;-75
2023/06/30 02:22:44;;;;;;;10.32;4.10;;;;;;;;;;5027024;28;20033;-74
2023/06/30 02:25:10;;;;;;;10.80;4.30;;;;;;;;;;5025719;28;20475;-75
2023/06/30 02:27:36;;;;;;;12.65;5.80;;;;;;;;;;5020487;28;20060;-75
2023/06/30 02:30:05;;;;;;;13.95;4.65;;;;;;;;;;5019741;28;20122;-76
2023/06/30 02:32:32;;;;;;;14.88;4.22;;;;;;;;;;5027588;28;20025;-75
2023/06/30 02:34:58;;;;;;;15.10;5.05;;;;;;;;;;5024391;28;20032;-75
2023/06/30 02:37:25;;;;;;;9.38;4.07;;;;;;;;;;5025874;28;20029;-74
2023/06/30 02:39:51;;;;;;;12.30;4.70;;;;;;;;;;5023245;28;20026;-74
2023/06/30 02:42:18;;;;;;;11.18;4.28;;;;;;;;;;5026968;28;20498;-75
2023/06/30 02:44:44;;;;;;;11.85;4.15;;;;;;;;;;5029846;28;20060;-73
2023/06/30 02:47:16;;;;;;;7.30;3.75;;;;;;;;;;5027050;28;20029;-73
2023/06/30 02:49:44;;;;;;;11.00;4.68;;;;;;;;;;5027919;28;20029;-74
2023/06/30 02:52:10;;;;;;;16.40;4.95;;;;;;;;;;5019318;28;20033;-74
2023/06/30 02:54:36;;;;;;;12.43;4.35;;;;;;;;;;5027376;28;20029;-74
2023/06/30 02:57:02;;;;;;;9.68;5.05;;;;;;;;;;5028436;28;20029;-74
2023/06/30 02:59:28;;;;;;;11.15;4.32;;;;;;;;;;5025192;28;20033;-74
2023/06/30 03:01:54;;;;;;;16.10;4.53;;;;;;;;;;5026831;28;20045;-75
2023/06/30 03:04:20;;;;;;;12.30;4.13;;;;;;;;;;5031402;28;20060;-74
2023/06/30 03:06:47;;;;;;;13.55;4.65;;;;;;;;;;5019053;28;20096;-74
2023/06/30 03:09:13;;;;;;;12.85;4.15;;;;;;;;;;5044553;28;20028;-75
2023/06/30 03:11:39;;;;;;;14.02;4.35;;;;;;;;;;5028528;28;20036;-74
2023/06/30 03:14:05;;;;;;;11.52;4.47;;;;;;;;;;5032659;28;20370;-75
2023/06/30 03:16:32;;;;;;;14.35;4.20;;;;;;;;;;5028505;28;20032;-74
2023/06/30 03:18:59;;;;;;;11.23;4.30;;;;;;;;;;5037497;28;20037;-75
2023/06/30 03:21:25;;;;;;;11.25;4.20;;;;;;;;;;5029253;28;20120;-75
2023/06/30 03:23:51;;;;;;;13.45;5.03;;;;;;;;;;5025655;28;20021;-74
2023/06/30 03:26:17;;;;;;;5.60;3.97;;;;;;;;;;5023050;28;20033;-74
2023/06/30 03:28:44;;;;;;;14.70;4.13;;;;;;;;;;5025069;28;20037;-74
2023/06/30 03:31:11;;;;;;;7.15;3.85;;;;;;;;;;5034968;28;20064;-74
2023/06/30 03:33:37;;;;;;;11.90;3.95;;;;;;;;;;5028295;28;20030;-73
2023/06/30 03:36:03;;;;;;;11.43;3.80;;;;;;;;;;5027899;28;20029;-74
2023/06/30 03:38:29;;;;;;;11.52;4.35;;;;;;;;;;5025368;28;20466;-74
2023/06/30 03:40:55;;;;;;;10.50;3.92;;;;;;;;;;5029049;28;20025;-74
2023/06/30 03:43:23;;;;;;;10.80;3.50;;;;;;;;;;5027457;28;20148;-74
2023/06/30 03:45:50;;;;;;;11.25;3.75;;;;;;;;;;5021408;28;20025;-72
2023/06/30 03:48:21;;;;;;;8.73;4.13;;;;;;;;;;5025765;28;20076;-73
2023/06/30 03:50:48;;;;;;;8.93;3.65;;;;;;;;;;5025944;28;20104;-75
2023/06/30 03:53:14;;;;;;;9.68;4.00;;;;;;;;;;5027995;28;20040;-75
2023/06/30 03:55:40;;;;;;;11.77;3.85;;;;;;;;;;5025373;28;20029;-75
2023/06/30 03:58:06;;;;;;;10.95;4.28;;;;;;;;;;5026305;28;20032;-74
2023/06/30 04:00:33;;;;;;;11.10;4.38;;;;;;;;;;5024848;28;20068;-75
2023/06/30 04:03:00;;;;;;;12.85;4.30;;;;;;;;;;5027045;28;20164;-76
2023/06/30 04:05:26;;;;;;;11.85;4.70;;;;;;;;;;5020702;28;20541;-74
2023/06/30 04:07:52;;;;;;;10.55;3.95;;;;;;;;;;5027088;28;20025;-74
2023/06/30 04:10:18;;;;;;;10.63;3.50;;;;;;;;;;5030069;28;20399;-74
2023/06/30 04:12:44;;;;;;;4.95;3.20;;;;;;;;;;5023861;28;20034;-75
2023/06/30 04:15:10;;;;;;;6.70;3.47;;;;;;;;;;5030222;28;20063;-74
2023/06/30 04:17:39;;;;;;;11.05;3.63;;;;;;;;;;5028980;28;20483;-74
2023/06/30 04:20:15;;;;;;;12.73;4.63;;;;;;;;;;5030010;28;20032;-74
2023/06/30 04:22:42;;;;;;;7.70;3.92;;;;;;;;;;5022259;28;20826;-75
2023/06/30 04:25:08;;;;;;;8.45;3.10;;;;;;;;;;5025825;28;20028;-74
2023/06/30 04:27:34;;;;;;;8.82;4.65;;;;;;;;;;5021083;28;20076;-74
2023/06/30 04:30:00;;;;;;;6.05;2.80;;;;;;;;;;5041744;28;20403;-74
2023/06/30 04:32:26;;;;;;;7.90;3.45;;;;;;;;;;5033275;28;20068;-76
2023/06/30 04:34:52;;;;;;;6.90;3.15;;;;;;;;;;5043435;28;20075;-75
2023/06/30 04:37:19;;;;;;;5.40;3.08;;;;;;;;;;5035362;28;20033;-75
2023/06/30 04:39:47;;;;;;;6.70;2.90;;;;;;;;;;5055057;28;20064;-74
2023/06/30 04:42:14;;;;;;;8.20;3.50;;;;;;;;;;5051232;28;20069;-75
2023/06/30 04:44:40;;;;;;;9.88;3.03;;;;;;;;;;5041664;28;20124;-74
2023/06/30 04:47:06;;;;;;;7.35;2.92;;;;;;;;;;5041193;28;20034;-75
2023/06/30 04:49:32;;;;;;;6.22;3.05;;;;;;;;;;5031596;28;20029;-74
2023/06/30 04:51:58;;;;;;;8.65;3.45;;;;;;;;;;5032471;28;20033;-74
2023/06/30 04:54:24;;;;;;;5.80;2.38;;;;;;;;;;5036526;28;20057;-74
2023/06/30 04:56:51;;;;;;;5.25;3.28;;;;;;;;;;5032677;28;20029;-74
2023/06/30 04:59:17;;;;;;;5.13;2.45;;;;;;;;;;5031823;28;20515;-75
2023/06/30 05:01:43;;;;;;;4.70;2.35;;;;;;;;;;5031525;28;20041;-74
2023/06/30 05:04:09;;;;;;;7.78;2.90;;;;;;;;;;5031008;28;20094;-74
2023/06/30 05:06:35;;;;;;;4.85;2.38;;;;;;;;;;5033380;28;20383;-75
2023/06/30 05:09:01;;;;;;;3.88;2.55;;;;;;;;;;5026234;28;20021;-74
2023/06/30 05:11:27;;;;;;;3.53;2.28;;;;;;;;;;5027021;28;20391;-75
2023/06/30 05:13:53;;;;;;;3.03;2.38;;;;;;;;;;5033020;28;20029;-74
2023/06/30 05:16:19;;;;;;;5.15;2.88;;;;;;;;;;5021566;28;20044;-76
2023/06/30 05:18:45;;;;;;;5.97;2.85;;;;;;;;;;5024071;28;20033;-75
2023/06/30 05:21:11;;;;;;;4.65;2.42;;;;;;;;;;5025112;28;20049;-75
2023/06/30 05:23:38;;;;;;;3.35;2.80;;;;;;;;;;5024808;28;20406;-76
2023/06/30 05:26:05;;;;;;;3.30;2.38;;;;;;;;;;5021177;28;20388;-75
2023/06/30 05:28:31;;;;;;;3.72;2.05;;;;;;;;;;5025439;28;20029;-73
2023/06/30 05:30:57;;;;;;;4.75;2.65;;;;;;;;;;5027583;28;20021;-73
2023/06/30 05:33:23;;;;;;;4.40;2.35;;;;;;;;;;5031355;28;20479;-73
2023/06/30 05:35:49;;;;;;;4.53;2.30;;;;;;;;;;5029281;28;20034;-74
2023/06/30 05:38:15;;;;;;;3.97;2.13;;;;;;;;;;5027156;28;20033;-72
2023/06/30 05:40:41;;;;;;;6.60;2.67;;;;;;;;;;5024292;28;20029;-73
2023/06/30 05:43:08;;;;;;;3.65;2.30;;;;;;;;;;5020974;28;20025;-73
2023/06/30 05:45:34;;;;;;;4.43;2.33;;;;;;;;;;5026082;28;20026;-72
2023/06/30 05:48:00;;;;;;;3.65;2.20;;;;;;;;;;5031404;28;20025;-73
2023/06/30 05:50:27;;;;;;;3.42;2.03;;;;;;;;;;5029764;28;20086;-73
2023/06/30 05:52:53;;;;;;;3.38;1.95;;;;;;;;;;5026422;28;20037;-72
2023/06/30 05:55:20;;;;;;;3.75;2.22;;;;;;;;;;5030927;28;20114;-72
2023/06/30 05:57:46;;;;;;;3.55;2.10;;;;;;;;;;5022234;28;20172;-73
2023/06/30 06:00:13;;;;;;;4.03;1.90;;;;;;;;;;5024511;28;20051;-73
2023/06/30 06:02:39;;;;;;;3.58;1.88;;;;;;;;;;5025787;28;20096;-75
2023/06/30 06:05:06;;;;;;;3.30;1.88;;;;;;;;;;5022436;28;20047;-74
2023/06/30 06:07:32;;;;;;;4.82;2.83;;;;;;;;;;5023767;28;20100;-74
2023/06/30 06:09:58;;;;;;;1.98;1.77;;;;;;;;;;5026673;28;20092;-73
2023/06/30 06:12:24;;;;;;;3.38;2.10;;;;;;;;;;5018282;28;20444;-73
2023/06/30 06:14:50;;;;;;;4.13;2.22;;;;;;;;;;5029983;28;20148;-73
2023/06/30 06:17:16;;;;;;;2.67;1.80;;;;;;;;;;5024260;28;20036;-74
2023/06/30 06:19:43;;;;;;;5.72;2.80;;;;;;;;;;5025123;28;20022;-74
2023/06/30 06:22:09;;;;;;;2.05;1.80;;;;;;;;;;5026362;28;20106;-73
2023/06/30 06:24:35;;;;;;;2.50;1.65;;;;;;;;;;5033195;28;20047;-73
2023/06/30 06:27:01;;;;;;;2.10;1.90;;;;;;;;;;5042735;28;20083;-74
2023/06/30 06:29:28;;;;;;;7.75;2.35;;;;;;;;;;5032556;28;20032;-74
2023/06/30 06:31:54;;;;;;;2.38;1.77;;;;;;;;;;5033190;28;20018;-74
2023/06/30 06:34:21;;;;;;;2.85;1.90;;;;;;;;;;5034245;28;20793;-74
2023/06/30 06:36:47;;;;;;;2.63;2.03;;;;;;;;;;5020182;28;20052;-74
2023/06/30 06:39:15;;;;;;;2.00;1.90;;;;;;;;;;5025486;28;20041;-73
2023/06/30 06:41:41;;;;;;;1.70;1.60;;;;;;;;;;5027414;28;20041;-72
2023/06/30 06:44:07;;;;;;;4.13;2.00;;;;;;;;;;5029008;28;20136;-73
2023/06/30 06:46:33;;;;;;;2.30;2.05;;;;;;;;;;5016049;28;20574;-73
2023/06/30 06:49:00;;;;;;;1.85;1.40;;;;;;;;;;5023726;28;20032;-72
2023/06/30 06:51:26;;;;;;;3.05;1.48;;;;;;;;;;5015778;28;20427;-73
2023/06/30 06:53:54;;;;;;;1.90;1.60;;;;;;;;;;5025173;28;20053;-74
2023/06/30 06:56:20;;;;;;;3.10;1.50;;;;;;;;;;5018221;28;20140;-72
2023/06/30 06:58:46;;;;;;;1.60;1.50;;;;;;;;;;5027819;28;20036;-72
2023/06/30 07:01:12;;;;;;;1.92;1.73;;;;;;;;;;5022121;28;20034;-72
2023/06/30 07:03:38;;;;;;;2.00;1.48;;;;;;;;;;5022919;28;20559;-72
2023/06/30 07:06:08;;;;;;;1.50;1.40;;;;;;;;;;5020220;28;20084;-72
2023/06/30 07:08:39;;;;;;;2.67;1.70;;;;;;;;;;5020644;28;20057;-72
2023/06/30 07:11:08;;;;;;;1.90;1.50;;;;;;;;;;5042847;28;20041;-73
2023/06/30 07:13:35;;;;;;;1.77;1.50;;;;;;;;;;5019647;28;20463;-73
2023/06/30 07:16:01;;;;;;;1.83;1.50;;;;;;;;;;5019763;28;20116;-72
2023/06/30 07:18:27;;;;;;;1.50;1.40;;;;;;;;;;5018211;28;20442;-72
2023/06/30 07:20:54;;;;;;;1.85;1.67;;;;;;;;;;5019976;28;20089;-72
2023/06/30 07:23:20;;;;;;;1.58;1.48;;;;;;;;;;5025572;28;20114;-72
2023/06/30 07:25:47;;;;;;;1.95;1.50;;;;;;;;;;5021745;28;20025;-71
2023/06/30 07:28:13;;;;;;;1.88;1.67;;;;;;;;;;5024492;28;20049;-73
2023/06/30 07:30:40;;;;;;;1.50;1.40;;;;;;;;;;5032312;28;20479;-73
2023/06/30 07:33:06;;;;;;;1.45;1.35;;;;;;;;;;5029745;28;20033;-73
2023/06/30 07:35:34;;;;;;;1.60;1.50;;;;;;;;;;5027711;28;20028;-73
2023/06/30 07:38:00;;;;;;;2.38;1.48;;;;;;;;;;5018545;28;20116;-74
2023/06/30 07:40:26;;;;;;;1.92;1.40;;;;;;;;;;5027062;28;20025;-74
2023/06/30 07:42:53;;;;;;;1.60;1.50;;;;;;;;;;5022146;28;20030;-74
2023/06/30 07:45:19;;;;;;;1.70;1.50;;;;;;;;;;5030168;28;20470;-74
2023/06/30 07:47:47;;;;;;;1.60;1.50;;;;;;;;;;5031907;28;20068;-73
2023/06/30 07:50:14;;;;;;;1.60;1.50;;;;;;;;;;5026057;28;20120;-74
2023/06/30 07:52:44;;;;;;;1.50;1.40;;;;;;;;;;5022156;28;20044;-75
2023/06/30 07:55:12;;;;;;;1.50;1.40;;;;;;;;;;5027325;28;20025;-73
2023/06/30 07:57:39;;;;;;;1.38;1.27;;;;;;;;;;5027762;28;20025;-74
2023/06/30 08:00:06;;;;;;;1.40;1.30;;;;;;;;;;5032540;28;20030;-74
2023/06/30 08:02:32;;;;;;;2.45;1.45;;;;;;;;;;5037894;28;20144;-73
2023/06/30 08:04:58;;;;;;;1.60;1.50;;;;;;;;;;5040374;28;20053;-74
2023/06/30 08:07:24;;;;;;;1.30;1.30;;;;;;;;;;5043690;28;20030;-72
2023/06/30 08:09:51;;;;;;;1.33;1.23;;;;;;;;;;5045059;28;20549;-74
2023/06/30 08:12:17;;;;;;;1.20;1.20;;;;;;;;;;5038086;28;20129;-72
2023/06/30 08:14:43;;;;;;;1.50;1.40;;;;;;;;;;5033810;28;20937;-73
2023/06/30 08:17:09;;;;;;;1.20;1.20;;;;;;;;;;5039156;28;20042;-72
2023/06/30 08:19:41;;;;;;;1.77;1.67;;;;;;;;;;5036565;28;20017;-74
2023/06/30 08:22:07;;;;;;;1.10;1.10;;;;;;;;;;5034299;28;20027;-73
2023/06/30 08:24:33;;;;;;;1.25;1.25;;;;;;;;;;5032616;28;20040;-73
2023/06/30 08:26:59;;;;;;;2.13;1.45;;;;;;;;;;5039624;28;20028;-73
2023/06/30 08:29:25;;;;;;;1.48;1.38;;;;;;;;;;5034618;28;20125;-74
2023/06/30 08:31:52;;;;;;;1.55;1.45;;;;;;;;;;5027627;28;20475;-73
2023/06/30 08:34:18;;;;;;;1.50;1.40;;;;;;;;;;5030238;28;20091;-74
2023/06/30 08:36:44;;;;;;;1.70;1.45;;;;;;;;;;5026285;28;20029;-73
2023/06/30 08:39:13;;;;;;;1.40;1.30;;;;;;;;;;5030899;28;20041;-73
2023/06/30 08:41:39;;;;;;;1.45;1.35;;;;;;;;;;5024653;28;20120;-74
2023/06/30 08:44:06;;;;;;;1.40;1.30;;;;;;;;;;5027092;28;20055;-74
2023/06/30 08:46:32;;;;;;;1.60;1.50;;;;;;;;;;5024482;28;20105;-74
2023/06/30 08:48:58;;;;;;;2.20;1.33;;;;;;;;;;5021986;28;20501;-74
2023/06/30 08:51:25;;;;;;;1.63;1.52;;;;;;;;;;5023161;28;20048;-74
2023/06/30 08:53:51;;;;;;;1.40;1.30;;;;;;;;;;5028995;28;20037;-72
2023/06/30 08:56:18;;;;;;;1.52;1.40;;;;;;;;;;5027975;28;20048;-73
2023/06/30 08:58:44;;;;;;;1.50;1.40;;;;;;;;;;5031207;28;20025;-73
2023/06/30 09:01:10;;;;;;;2.92;1.50;;;;;;;;;;5030482;28;20025;-72
2023/06/30 09:03:36;;;;;;;1.52;1.42;;;;;;;;;;5026103;28;20068;-74
2023/06/30 09:06:02;;;;;;;1.80;1.70;;;;;;;;;;5032345;28;20056;-72
2023/06/30 09:08:40;;;;;;;1.60;1.50;;;;;;;;;;5027957;28;20033;-72
2023/06/30 09:11:08;;;;;;;2.08;1.55;;;;;;;;;;5028688;28;20192;-72
2023/06/30 09:13:34;;;;;;;1.60;1.50;;;;;;;;;;5025977;28;20064;-71
2023/06/30 09:16:04;;;;;;;1.60;1.50;;;;;;;;;;5023392;28;20041;-72
2023/06/30 09:18:30;;;;;;;1.60;1.50;;;;;;;;;;5020341;28;20036;-73
2023/06/30 09:20:56;;;;;;;1.50;1.40;;;;;;;;;;5023941;28;20515;-72
2023/06/30 09:23:22;;;;;;;1.65;1.55;;;;;;;;;;5023061;28;20087;-74
2023/06/30 09:25:48;;;;;;;1.38;1.27;;;;;;;;;;5027765;28;20499;-73
2023/06/30 09:28:15;;;;;;;1.60;1.45;;;;;;;;;;5027428;28;20069;-73
2023/06/30 09:30:45;;;;;;;1.65;1.50;;;;;;;;;;5027381;28;20038;-73
2023/06/30 09:33:13;;;;;;;1.38;1.35;;;;;;;;;;5027529;28;20112;-72
2023/06/30 09:35:40;;;;;;;1.50;1.40;;;;;;;;;;5028428;28;20037;-73
2023/06/30 09:38:10;;;;;;;2.72;2.05;;;;;;;;;;5027432;28;20036;-74
2023/06/30 09:40:36;;;;;;;3.42;1.52;;;;;;;;;;5024345;28;20036;-74
2023/06/30 09:43:02;;;;;;;1.40;1.30;;;;;;;;;;5026532;28;20025;-73
2023/06/30 09:45:28;;;;;;;3.03;1.60;;;;;;;;;;5026105;28;20523;-72
2023/06/30 09:47:54;;;;;;;1.55;1.45;;;;;;;;;;5022277;28;20098;-73
2023/06/30 09:50:24;;;;;;;2.13;1.50;;;;;;;;;;5029403;28;20030;-72
2023/06/30 09:52:51;;;;;;;2.33;1.70;;;;;;;;;;5027956;28;20032;-73
2023/06/30 09:55:17;;;;;;;2.33;1.63;;;;;;;;;;5024248;28;20168;-72
2023/06/30 09:57:43;;;;;;;2.13;1.70;;;;;;;;;;5021397;28;20106;-73
2023/06/30 10:00:13;;;;;;;1.70;1.60;;;;;;;;;;5022330;28;20562;-73
2023/06/30 10:02:40;;;;;;;2.60;1.50;;;;;;;;;;5022271;28;20021;-73
2023/06/30 10:05:12;;;;;;;1.75;1.65;;;;;;;;;;5024562;28;20048;-73
2023/06/30 10:07:41;;;;;;;1.75;1.65;;;;;;;;;;5023816;28;20053;-73
2023/06/30 10:10:12;;;;;;;1.90;1.58;;;;;;;;;;5023127;28;20051;-73
2023/06/30 10:12:40;;;;;;;2.42;1.60;;;;;;;;;;5024741;28;20556;-73
2023/06/30 10:15:07;;;;;;;2.70;1.40;;;;;;;;;;5025997;28;20029;-73
2023/06/30 10:17:33;;;;;;;1.40;1.30;;;;;;;;;;5025257;28;20033;-73
2023/06/30 10:20:01;;;;;;;1.40;1.30;;;;;;;;;;5029592;28;20021;-73
2023/06/30 10:22:27;;;;;;;1.40;1.30;;;;;;;;;;5047419;28;20024;-73
2023/06/30 10:24:54;;;;;;;1.80;1.70;;;;;;;;;;5032910;28;20022;-73
2023/06/30 10:27:22;;;;;;;1.55;1.45;;;;;;;;;;5032353;28;20782;-72
2023/06/30 10:29:48;;;;;;;1.42;1.33;;;;;;;;;;5032256;28;20035;-73
2023/06/30 10:32:20;;;;;;;1.92;1.50;;;;;;;;;;5026641;28;20021;-72
2023/06/30 10:34:46;;;;;;;1.50;1.40;;;;;;;;;;5021372;28;20061;-73
2023/06/30 10:37:13;;;;;;;2.40;1.50;;;;;;;;;;5021339;28;20056;-73
2023/06/30 10:39:39;;;;;;;2.33;1.52;;;;;;;;;;5020230;28;20030;-74
2023/06/30 10:42:06;;;;;;;2.00;1.80;;;;;;;;;;5020976;28;20025;-73
2023/06/30 10:44:39;;;;;;;4.30;1.63;;;;;;;;;;5020767;28;20025;-72
2023/06/30 10:47:05;;;;;;;2.33;1.60;;;;;;;;;;5028160;28;20025;-72
2023/06/30 10:49:35;;;;;;;1.80;1.70;;;;;;;;;;5023593;28;20083;-73
2023/06/30 10:52:03;;;;;;;1.88;1.67;;;;;;;;;;5021765;28;20029;-72
2023/06/30 10:54:30;;;;;;;3.42;1.60;;;;;;;;;;5019520;28;20191;-74
2023/06/30 10:57:09;;;;;;;2.10;1.90;;;;;;;;;;5032295;28;20175;-75
2023/06/30 10:59:41;;;;;;;2.17;1.98;;;;;;;;;;5033839;28;20048;-73
2023/06/30 11:02:11;;;;;;;1.70;1.60;;;;;;;;;;5027531;28;20025;-72
2023/06/30 11:04:38;;;;;;;3.72;1.70;;;;;;;;;;5027655;28;20060;-73
2023/06/30 11:07:06;;;;;;;1.75;1.65;;;;;;;;;;5027623;28;20074;-73
2023/06/30 11:09:47;;;;;;;1.90;1.70;;;;;;;;;;5023557;28;20026;-75
2023/06/30 11:12:23;;;;;;;1.90;1.60;;;;;;;;;;5022362;28;20021;-75
2023/06/30 11:14:58;;;;;;;2.25;1.73;;;;;;;;;;5019488;28;20032;-75
2023/06/30 11:17:24;;;;;;;;;;;;;;;;;;5027195;28;20386;-75
2023/06/30 11:20:12;;;;;;;1.92;1.70;;;;;;;;;;5040328;28;19920;-74
2023/06/30 11:22:38;;;;;;;1.73;1.63;;;;;;;;;;5043255;28;21199;-74
2023/06/30 11:25:10;;;;;;;1.63;1.50;;;;;;;;;;5057394;28;20025;-75
2023/06/30 11:27:37;;;;;;;2.10;1.70;;;;;;;;;;5037169;28;20135;-74
2023/06/30 11:30:04;;;;;;;1.75;1.60;;;;;;;;;;5028931;28;20032;-74
2023/06/30 11:32:31;;;;;;;1.70;1.60;;;;;;;;;;5025414;28;20071;-74
2023/06/30 11:34:58;;;;;;;2.22;1.90;;;;;;;;;;5023877;28;20026;-74
2023/06/30 11:37:25;;;;;;;2.10;1.75;;;;;;;;;;5025338;28;20041;-72
2023/06/30 11:39:51;;;;;;;2.47;1.75;;;;;;;;;;5028502;28;20022;-75
2023/06/30 11:42:18;;;;;;;2.00;1.80;;;;;;;;;;5042905;28;20030;-73
2023/06/30 11:44:44;;;;;;;2.05;1.73;;;;;;;;;;5031257;28;20031;-74
2023/06/30 11:47:11;;;;;;;3.20;1.90;;;;;;;;;;5029767;28;20029;-75
2023/06/30 11:49:37;;;;;;;2.17;1.85;;;;;;;;;;5040410;28;20025;-75
2023/06/30 11:52:04;;;;;;;2.00;1.77;;;;;;;;;;5023043;28;20503;-74
2023/06/30 11:54:32;;;;;;;1.70;1.60;;;;;;;;;;5028635;28;20052;-74
2023/06/30 11:56:59;;;;;;;2.70;1.88;;;;;;;;;;5028871;28;20372;-73
2023/06/30 11:59:25;;;;;;;2.13;1.85;;;;;;;;;;5028011;28;20033;-75
2023/06/30 12:01:52;;;;;;;2.20;2.00;;;;;;;;;;5027289;28;20360;-73
2023/06/30 12:04:18;;;;;;;2.03;1.83;;;;;;;;;;5028705;28;20141;-74
2023/06/30 12:06:47;;;;;;;2.22;1.85;;;;;;;;;;5025762;28;20026;-74
2023/06/30 12:09:13;;;;;;;2.28;1.95;;;;;;;;;;5028631;28;20037;-73
2023/06/30 12:11:43;;;;;;;2.08;1.60;;;;;;;;;;5024382;28;20064;-73
2023/06/30 12:14:09;;;;;;;2.28;1.90;;;;;;;;;;5033753;28;20471;-73
2023/06/30 12:16:39;;;;;;;2.00;1.80;;;;;;;;;;5037986;28;20044;-73
2023/06/30 12:19:06;;;;;;;2.28;1.90;;;;;;;;;;5039066;28;20029;-73
2023/06/30 12:21:35;;;;;;;3.63;1.75;;;;;;;;;;5028649;28;20051;-72
2023/06/30 12:24:06;;;;;;;2.40;2.00;;;;;;;;;;5031852;28;20028;-73
2023/06/30 12:26:33;;;;;;;1.95;1.70;;;;;;;;;;5037629;28;20084;-74
2023/06/30 12:29:05;;;;;;;3.58;2.10;;;;;;;;;;5053439;28;20826;-73
2023/06/30 12:31:31;;;;;;;1.80;1.70;;;;;;;;;;5037150;28;20029;-73
2023/06/30 12:33:58;;;;;;;2.20;1.92;;;;;;;;;;5028994;28;20033;-74
2023/06/30 12:36:28;;;;;;;4.95;1.80;;;;;;;;;;5033914;28;20025;-73
2023/06/30 12:38:54;;;;;;;2.10;1.90;;;;;;;;;;5030009;28;20040;-72
2023/06/30 12:41:21;;;;;;;2.13;1.90;;;;;;;;;;5032983;28;20057;-72
2023/06/30 12:43:48;;;;;;;1.65;1.55;;;;;;;;;;5037191;28;20033;-71
2023/06/30 12:46:14;;;;;;;2.58;1.85;;;;;;;;;;5030294;28;20744;-71
2023/06/30 12:48:40;;;;;;;1.80;1.70;;;;;;;;;;5028658;28;20044;-71
2023/06/30 12:51:07;;;;;;;2.00;1.80;;;;;;;;;;5024134;28;20499;-72
2023/06/30 12:53:33;;;;;;;2.30;2.10;;;;;;;;;;5027370;28;20029;-74
2023/06/30 12:55:59;;;;;;;1.70;1.60;;;;;;;;;;5025267;28;20037;-74
2023/06/30 12:58:26;;;;;;;2.90;1.83;;;;;;;;;;5027201;28;20071;-74
2023/06/30 13:00:59;;;;;;;1.75;1.65;;;;;;;;;;5025606;28;20021;-75
2023/06/30 13:03:28;;;;;;;2.63;1.73;;;;;;;;;;5034948;28;20051;-73
2023/06/30 13:05:54;;;;;;;1.95;1.75;;;;;;;;;;5025995;28;20109;-74
2023/06/30 13:08:20;;;;;;;2.63;2.13;;;;;;;;;;5023885;28;20028;-75
2023/06/30 13:10:49;;;;;;;2.10;1.80;;;;;;;;;;5024403;28;20041;-74
2023/06/30 13:13:15;;;;;;;1.98;1.77;;;;;;;;;;5024681;28;20051;-74
2023/06/30 13:15:41;;;;;;;2.00;1.80;;;;;;;;;;5025935;28;20018;-74
2023/06/30 13:18:07;;;;;;;2.80;2.13;;;;;;;;;;5028135;28;20030;-73
2023/06/30 13:20:33;;;;;;;4.38;1.70;;;;;;;;;;5024386;28;20418;-74
2023/06/30 13:22:59;;;;;;;2.60;1.92;;;;;;;;;;5031103;28;20025;-73
2023/06/30 13:25:25;;;;;;;2.15;1.95;;;;;;;;;;5026297;28;20029;-72
2023/06/30 13:27:51;;;;;;;2.03;1.63;;;;;;;;;;5029234;28;20052;-72
2023/06/30 13:30:17;;;;;;;2.20;1.80;;;;;;;;;;5022548;28;20419;-74
2023/06/30 13:32:44;;;;;;;2.05;1.80;;;;;;;;;;5026722;28;20104;-73
2023/06/30 13:35:10;;;;;;;3.13;1.70;;;;;;;;;;5021772;28;20029;-73
2023/06/30 13:37:36;;;;;;;2.30;1.70;;;;;;;;;;5023695;28;20436;-74
2023/06/30 13:40:02;;;;;;;4.05;1.65;;;;;;;;;;5022316;28;20025;-74
2023/06/30 13:42:28;;;;;;;1.90;1.70;;;;;;;;;;5025419;28;20424;-73
2023/06/30 13:44:54;;;;;;;1.88;1.75;;;;;;;;;;5023858;28;20021;-73
2023/06/30 13:47:21;;;;;;;2.20;1.80;;;;;;;;;;5023002;28;20033;-74
2023/06/30 13:49:47;;;;;;;1.70;1.60;;;;;;;;;;5024974;28;20035;-73
2023/06/30 13:52:13;;;;;;;1.77;1.55;;;;;;;;;;5020998;28;20026;-73
2023/06/30 13:54:40;;;;;;;2.85;1.83;;;;;;;;;;5024693;28;20047;-73
2023/06/30 13:57:07;;;;;;;2.17;1.85;;;;;;;;;;5024538;28;20064;-73
2023/06/30 13:59:33;;;;;;;3.28;1.67;;;;;;;;;;5024892;28;20136;-72
2023/06/30 14:01:59;;;;;;;1.80;1.70;;;;;;;;;;5019850;28;20032;-73
2023/06/30 14:04:26;;;;;;;1.40;1.30;;;;;;;;;;5024574;28;20044;-73
2023/06/30 14:06:52;;;;;;;1.70;1.60;;;;;;;;;;5027150;28;20029;-73
2023/06/30 14:09:18;;;;;;;1.60;1.50;;;;;;;;;;5018480;28;20068;-73
2023/06/30 14:11:44;;;;;;;1.60;1.48;;;;;;;;;;5025538;28;20483;-74
2023/06/30 14:14:10;;;;;;;1.50;1.40;;;;;;;;;;5022959;28;20053;-73
2023/06/30 14:16:36;;;;;;;1.70;1.60;;;;;;;;;;5027661;28;20384;-73
2023/06/30 14:19:03;;;;;;;1.77;1.67;;;;;;;;;;5025457;28;20033;-74
2023/06/30 14:21:29;;;;;;;2.67;1.80;;;;;;;;;;5019303;28;20033;-73
2023/06/30 14:23:55;;;;;;;1.60;1.50;;;;;;;;;;5026563;28;20029;-73
2023/06/30 14:26:25;;;;;;;2.42;1.77;;;;;;;;;;5033150;28;20064;-73
2023/06/30 14:28:52;;;;;;;2.40;1.80;;;;;;;;;;5027135;28;20052;-73
2023/06/30 14:31:18;;;;;;;1.65;1.45;;;;;;;;;;5033220;28;20018;-74
2023/06/30 14:33:44;;;;;;;1.80;1.70;;;;;;;;;;5044337;28;20024;-74
2023/06/30 14:36:10;;;;;;;2.53;1.90;;;;;;;;;;5045625;28;20029;-75
2023/06/30 14:38:36;;;;;;;1.90;1.70;;;;;;;;;;5043137;28;20112;-75